createdAt,value
2019-03-06T00:00:03.542Z,81.64
2019-03-06T00:01:03.520Z,81.57
2019-03-06T00:02:03.499Z,81.54
2019-03-06T00:03:03.584Z,81.02
2019-03-06T00:04:03.485Z,81.12
2019-03-06T00:05:03.475Z,81.23
2019-03-06T00:06:03.498Z,81.23
2019-03-06T00:07:03.453Z,80.91
2019-03-06T00:08:03.452Z,80.91
2019-03-06T00:09:03.612Z,80.81
2019-03-06T00:10:03.421Z,80.91
2019-03-06T00:11:03.409Z,81.64
2019-03-06T00:12:03.403Z,81.64
2019-03-06T00:13:03.384Z,81.33
2019-03-06T00:14:03.469Z,81.54
2019-03-06T00:15:03.369Z,81.64
2019-03-06T00:16:03.355Z,81.74
2019-03-06T00:17:03.343Z,81.43
2019-03-06T00:18:03.338Z,81.02
2019-03-06T00:19:03.344Z,81.54
2019-03-06T00:20:03.373Z,81.54
2019-03-06T00:21:03.309Z,81.54
2019-03-06T00:22:03.286Z,81.54
2019-03-06T00:23:03.272Z,81.54
2019-03-06T00:24:03.268Z,81.54
2019-03-06T00:25:03.305Z,81.64
2019-03-06T00:26:03.290Z,81.64
2019-03-06T00:27:03.229Z,81.54
2019-03-06T00:28:03.217Z,81.64
2019-03-06T00:29:03.204Z,81.23
2019-03-06T00:30:03.199Z,81.64
2019-03-06T00:31:03.255Z,81.43
2019-03-06T00:32:03.192Z,81.33
2019-03-06T00:33:03.169Z,81.54
2019-03-06T00:34:03.162Z,81.43
2019-03-06T00:35:03.146Z,81.74
2019-03-06T00:36:03.144Z,81.64
2019-03-06T00:37:03.167Z,81.43
2019-03-06T00:38:03.114Z,81.74
2019-03-06T00:39:03.108Z,81.84
2019-03-06T00:40:03.089Z,81.54
2019-03-06T00:41:03.087Z,81.84
2019-03-06T00:42:03.112Z,81.54
2019-03-06T00:43:03.070Z,81.74
2019-03-06T00:44:03.049Z,81.54
2019-03-06T00:45:03.039Z,81.95
2019-03-06T00:46:03.033Z,81.95
2019-03-06T00:47:03.059Z,81.74
2019-03-06T00:48:03.016Z,81.54
2019-03-06T00:49:02.990Z,81.95
2019-03-06T00:50:02.986Z,81.84
2019-03-06T00:51:02.983Z,81.95
2019-03-06T00:52:03.027Z,81.74
2019-03-06T00:53:02.952Z,81.95
2019-03-06T00:54:02.941Z,82.57
2019-03-06T00:55:02.967Z,82.05
2019-03-06T00:56:02.919Z,81.95
2019-03-06T00:57:02.902Z,82.46
2019-03-06T00:58:02.941Z,82.26
2019-03-06T00:59:02.878Z,81.95
2019-03-06T01:00:02.874Z,82.36
2019-03-06T01:01:02.865Z,82.26
2019-03-06T01:02:02.863Z,82.78
2019-03-06T01:03:02.894Z,83.19
2019-03-06T01:04:02.851Z,82.88
2019-03-06T01:05:02.816Z,82.57
2019-03-06T01:06:02.809Z,82.98
2019-03-06T01:07:02.840Z,82.36
2019-03-06T01:08:02.793Z,83.40
2019-03-06T01:09:02.814Z,82.67
2019-03-06T01:10:02.780Z,83.50
2019-03-06T01:11:02.768Z,83.81
2019-03-06T01:12:02.744Z,84.22
2019-03-06T01:13:02.726Z,83.71
2019-03-06T01:14:02.783Z,84.12
2019-03-06T01:15:02.720Z,84.01
2019-03-06T01:16:02.724Z,83.61
2019-03-06T01:17:02.687Z,84.12
2019-03-06T01:18:02.691Z,84.22
2019-03-06T01:19:02.726Z,84.84
2019-03-06T01:20:02.673Z,85.26
2019-03-06T01:21:02.639Z,85.16
2019-03-06T01:22:02.678Z,84.95
2019-03-06T01:23:02.627Z,84.95
2019-03-06T01:24:02.684Z,85.16
2019-03-06T01:25:02.599Z,85.05
2019-03-06T01:26:02.586Z,85.16
2019-03-06T01:27:02.576Z,85.16
2019-03-06T01:28:02.586Z,85.05
2019-03-06T01:29:02.601Z,85.78
2019-03-06T01:30:02.583Z,85.92
2019-03-06T01:31:02.545Z,86.81
2019-03-06T01:32:02.524Z,86.54
2019-03-06T01:33:02.553Z,87.12
2019-03-06T01:34:02.507Z,87.02
2019-03-06T01:35:02.539Z,87.02
2019-03-06T01:36:02.483Z,87.64
2019-03-06T01:37:02.475Z,87.64
2019-03-06T01:38:02.459Z,87.12
2019-03-06T01:39:02.448Z,87.99
2019-03-06T01:40:02.454Z,87.85
2019-03-06T01:41:02.473Z,87.64
2019-03-06T01:42:02.417Z,88.36
2019-03-06T01:43:02.413Z,88.26
2019-03-06T01:44:02.393Z,88.06
2019-03-06T01:45:02.383Z,87.99
2019-03-06T01:46:02.448Z,88.88
2019-03-06T01:47:02.371Z,88.09
2019-03-06T01:48:02.346Z,89.03
2019-03-06T01:49:02.342Z,89.03
2019-03-06T01:50:02.335Z,88.67
2019-03-06T01:51:02.374Z,89.23
2019-03-06T01:52:02.319Z,89.09
2019-03-06T01:53:02.293Z,89.40
2019-03-06T01:54:02.288Z,89.61
2019-03-06T01:55:02.311Z,89.29
2019-03-06T01:56:02.314Z,89.50
2019-03-06T01:57:02.265Z,90.23
2019-03-06T01:58:02.248Z,89.61
2019-03-06T01:59:02.235Z,90.64
2019-03-06T02:00:02.279Z,90.44
2019-03-06T02:01:02.216Z,90.33
2019-03-06T02:02:02.603Z,90.53
2019-03-06T02:03:02.186Z,90.12
2019-03-06T02:04:02.181Z,90.02
2019-03-06T02:05:03.231Z,90.33
2019-03-06T02:06:02.202Z,90.12
2019-03-06T02:07:02.159Z,90.23
2019-03-06T02:08:02.185Z,90.23
2019-03-06T02:09:02.167Z,90.23
2019-03-06T02:10:02.117Z,90.23
2019-03-06T02:11:02.108Z,90.02
2019-03-06T02:12:02.149Z,90.84
2019-03-06T02:13:02.134Z,90.74
2019-03-06T02:14:02.108Z,90.33
2019-03-06T02:15:02.094Z,90.84
2019-03-06T02:16:02.060Z,90.44
2019-03-06T02:17:02.043Z,90.84
2019-03-06T02:18:02.075Z,91.16
2019-03-06T02:19:02.088Z,91.05
2019-03-06T02:20:02.057Z,91.05
2019-03-06T02:21:02.034Z,91.05
2019-03-06T02:22:01.991Z,91.88
2019-03-06T02:23:02.008Z,92.09
2019-03-06T02:24:02.145Z,91.99
2019-03-06T02:25:02.085Z,91.57
2019-03-06T02:26:02.183Z,91.99
2019-03-06T02:27:02.035Z,91.67
2019-03-06T02:28:02.092Z,91.94
2019-03-06T02:29:02.026Z,93.02
2019-03-06T02:30:01.996Z,93.02
2019-03-06T02:31:01.894Z,92.61
2019-03-06T02:32:02.269Z,93.12
2019-03-06T02:33:01.962Z,92.71
2019-03-06T02:35:19.227Z,93.12
2019-03-06T02:36:17.631Z,94.47
2019-03-06T02:37:17.620Z,95.09
2019-03-06T02:38:18.595Z,95.03
2019-03-06T02:39:21.231Z,94.57
2019-03-06T02:40:18.623Z,95.19
2019-03-06T02:41:17.552Z,94.41
2019-03-06T02:42:17.549Z,94.98
2019-03-06T02:43:19.240Z,95.40
2019-03-06T02:44:17.559Z,95.09
2019-03-06T02:45:19.444Z,95.29
2019-03-06T02:46:17.566Z,95.71
2019-03-06T02:47:17.498Z,96.12
2019-03-06T02:48:17.552Z,95.61
2019-03-06T02:49:17.505Z,95.61
2019-03-06T02:50:17.510Z,96.12
2019-03-06T02:51:17.591Z,96.33
2019-03-06T02:52:17.466Z,96.23
2019-03-06T02:53:17.459Z,95.92
2019-03-06T02:54:17.433Z,96.23
2019-03-06T02:55:17.481Z,96.12
2019-03-06T02:56:17.406Z,96.75
2019-03-06T02:57:17.440Z,96.33
2019-03-06T02:58:17.377Z,96.95
2019-03-06T02:59:17.368Z,96.75
2019-03-06T03:00:17.456Z,96.64
2019-03-06T03:01:17.336Z,96.85
2019-03-06T03:02:17.330Z,96.75
2019-03-06T03:03:17.378Z,97.26
2019-03-06T03:04:17.319Z,97.26
2019-03-06T03:05:17.361Z,96.95
2019-03-06T03:06:17.323Z,97.16
2019-03-06T03:07:17.291Z,97.16
2019-03-06T03:08:17.258Z,97.26
2019-03-06T03:09:17.325Z,97.26
2019-03-06T03:10:17.247Z,96.95
2019-03-06T03:11:17.278Z,97.57
2019-03-06T03:12:17.216Z,97.47
2019-03-06T03:13:17.220Z,97.26
2019-03-06T03:14:17.199Z,97.26
2019-03-06T03:15:17.195Z,96.95
2019-03-06T03:16:17.955Z,96.95
2019-03-06T03:17:17.171Z,96.95
2019-03-06T03:18:17.159Z,97.57
2019-03-06T03:19:17.140Z,96.95
2019-03-06T03:20:17.132Z,97.06
2019-03-06T03:21:17.196Z,97.47
2019-03-06T03:22:17.111Z,97.67
2019-03-06T03:23:17.110Z,97.57
2019-03-06T03:24:17.095Z,97.16
2019-03-06T03:25:17.079Z,97.57
2019-03-06T03:26:17.069Z,97.47
2019-03-06T03:27:17.162Z,97.36
2019-03-06T03:28:19.727Z,97.22
2019-03-06T03:29:17.044Z,97.67
2019-03-06T03:30:17.036Z,97.26
2019-03-06T03:31:17.026Z,97.36
2019-03-06T03:32:17.070Z,97.57
2019-03-06T03:33:18.033Z,96.95
2019-03-06T03:34:22.770Z,97.57
2019-03-06T03:35:16.972Z,96.95
2019-03-06T03:36:16.963Z,97.57
2019-03-06T03:37:16.950Z,97.06
2019-03-06T03:38:16.992Z,97.36
2019-03-06T03:39:16.925Z,97.47
2019-03-06T03:40:16.989Z,97.47
2019-03-06T03:41:16.900Z,97.57
2019-03-06T03:42:16.933Z,97.26
2019-03-06T03:43:16.895Z,97.32
2019-03-06T03:44:16.941Z,97.06
2019-03-06T03:45:16.909Z,97.47
2019-03-06T03:46:16.849Z,97.47
2019-03-06T03:47:16.844Z,97.36
2019-03-06T03:48:16.888Z,97.42
2019-03-06T03:49:16.875Z,97.57
2019-03-06T03:50:16.805Z,97.42
2019-03-06T03:51:16.809Z,97.42
2019-03-06T03:52:16.790Z,97.53
2019-03-06T03:53:16.773Z,97.57
2019-03-06T03:54:16.821Z,97.42
2019-03-06T03:55:16.752Z,97.42
2019-03-06T03:56:16.805Z,97.63
2019-03-06T03:57:16.738Z,97.42
2019-03-06T03:58:16.721Z,97.22
2019-03-06T03:59:18.392Z,97.74
2019-03-06T04:00:16.702Z,97.63
2019-03-06T04:01:16.689Z,97.42
2019-03-06T04:02:16.681Z,97.26
2019-03-06T04:03:16.709Z,97.42
2019-03-06T04:04:16.707Z,97.42
2019-03-06T04:05:16.648Z,97.53
2019-03-06T04:06:16.636Z,97.57
2019-03-06T04:07:16.627Z,97.53
2019-03-06T04:08:16.623Z,97.11
2019-03-06T04:09:16.608Z,97.22
2019-03-06T04:10:16.673Z,97.22
2019-03-06T04:11:16.644Z,97.42
2019-03-06T04:12:16.570Z,97.53
2019-03-06T04:13:16.575Z,97.42
2019-03-06T04:14:16.569Z,97.32
2019-03-06T04:15:16.569Z,97.32
2019-03-06T04:16:16.569Z,97.42
2019-03-06T04:17:16.523Z,97.63
2019-03-06T04:18:16.508Z,97.63
2019-03-06T04:19:16.608Z,97.63
2019-03-06T04:20:16.507Z,97.63
2019-03-06T04:21:16.580Z,97.42
2019-03-06T04:22:16.462Z,97.01
2019-03-06T04:23:16.451Z,97.32
2019-03-06T04:24:16.437Z,97.42
2019-03-06T04:25:16.449Z,97.53
2019-03-06T04:26:16.460Z,97.22
2019-03-06T04:27:16.423Z,97.63
2019-03-06T04:28:16.407Z,97.42
2019-03-06T04:29:16.412Z,97.69
2019-03-06T04:30:16.416Z,97.42
2019-03-06T04:31:16.525Z,97.53
2019-03-06T04:32:16.373Z,97.07
2019-03-06T04:33:16.385Z,97.28
2019-03-06T04:34:16.344Z,97.07
2019-03-06T04:35:16.333Z,97.07
2019-03-06T04:36:16.366Z,97.17
2019-03-06T04:37:16.296Z,97.17
2019-03-06T04:38:16.293Z,96.34
2019-03-06T04:39:16.287Z,96.45
2019-03-06T04:40:16.303Z,96.45
2019-03-06T04:41:16.294Z,97.07
2019-03-06T04:42:16.347Z,97.07
2019-03-06T04:43:16.232Z,97.07
2019-03-06T04:44:16.218Z,96.34
2019-03-06T04:45:16.271Z,96.66
2019-03-06T04:46:16.292Z,96.24
2019-03-06T04:47:16.232Z,97.07
2019-03-06T04:48:16.175Z,96.03
2019-03-06T04:49:16.239Z,97.07
2019-03-06T04:50:16.181Z,96.76
2019-03-06T04:51:16.210Z,97.17
2019-03-06T04:52:16.139Z,97.17
2019-03-06T04:53:16.143Z,97.17
2019-03-06T04:54:16.119Z,97.07
2019-03-06T04:55:16.105Z,97.17
2019-03-06T04:56:16.173Z,96.34
2019-03-06T04:57:16.087Z,96.41
2019-03-06T04:58:16.099Z,96.51
2019-03-06T04:59:16.100Z,95.99
2019-03-06T05:00:16.070Z,96.09
2019-03-06T05:01:16.124Z,96.30
2019-03-06T05:02:16.053Z,96.45
2019-03-06T05:03:16.055Z,96.61
2019-03-06T05:04:17.004Z,96.30
2019-03-06T05:05:39.297Z,96.61
2019-03-06T05:06:17.203Z,96.30
2019-03-06T05:42:57.726Z,95.02
2019-03-06T05:44:24.873Z,95.64
2019-03-06T05:44:40.404Z,95.02
2019-03-06T06:56:23.812Z,90.51
2019-03-06T06:57:11.775Z,90.31
2019-03-06T07:03:36.561Z,89.89
2019-03-06T07:04:37.427Z,90.16
2019-03-06T07:05:36.506Z,90.37
2019-03-06T07:06:36.489Z,89.85
2019-03-06T07:07:36.496Z,89.75
2019-03-06T07:08:36.486Z,89.54
2019-03-06T07:09:36.643Z,90.06
2019-03-06T07:10:36.455Z,89.85
2019-03-06T07:11:36.442Z,89.44
2019-03-06T07:12:36.525Z,89.54
2019-03-06T07:13:36.432Z,89.03
2019-03-06T07:14:36.405Z,89.13
2019-03-06T07:15:36.449Z,89.75
2019-03-06T07:16:36.409Z,88.72
2019-03-06T07:17:37.411Z,89.03
2019-03-06T07:18:36.396Z,88.82
2019-03-06T07:19:36.382Z,88.57
2019-03-06T07:20:36.412Z,89.29
2019-03-06T07:21:36.493Z,88.57
2019-03-06T07:22:36.352Z,88.47
2019-03-06T07:23:36.319Z,88.57
2019-03-06T07:24:36.294Z,88.57
2019-03-06T07:25:37.926Z,87.65
2019-03-06T07:26:36.281Z,87.13
2019-03-06T07:27:36.272Z,87.24
2019-03-06T07:28:36.246Z,88.23
2019-03-06T07:29:36.270Z,87.09
2019-03-06T07:30:36.306Z,88.23
2019-03-06T07:31:36.257Z,87.40
2019-03-06T07:32:37.874Z,87.19
2019-03-06T07:33:36.195Z,86.79
2019-03-06T07:34:36.253Z,86.58
2019-03-06T07:35:36.173Z,86.68
2019-03-06T07:36:36.206Z,86.58
2019-03-06T07:37:36.191Z,86.43
2019-03-06T07:38:36.138Z,85.71
2019-03-06T07:39:36.215Z,84.79
2019-03-06T07:40:36.136Z,86.13
2019-03-06T07:41:36.180Z,86.13
2019-03-06T07:42:36.193Z,85.92
2019-03-06T07:43:36.098Z,86.33
2019-03-06T07:44:36.089Z,86.13
2019-03-06T07:45:36.169Z,85.82
2019-03-06T07:46:36.053Z,85.41
2019-03-06T07:47:38.434Z,85.20
2019-03-06T07:48:36.035Z,84.69
2019-03-06T07:49:44.712Z,85.61
2019-03-06T07:50:37.071Z,85.20
2019-03-06T07:51:36.001Z,84.79
2019-03-06T07:52:35.989Z,84.99
2019-03-06T07:53:36.061Z,84.99
2019-03-06T07:54:38.900Z,84.99
2019-03-06T07:55:35.966Z,84.79
2019-03-06T07:56:36.003Z,84.34
2019-03-06T07:57:36.022Z,84.44
2019-03-06T07:58:39.981Z,84.54
2019-03-06T07:59:35.958Z,83.92
2019-03-06T08:00:35.904Z,83.72
2019-03-06T08:01:35.900Z,83.72
2019-03-06T08:02:35.969Z,83.27
2019-03-06T08:03:35.874Z,83.58
2019-03-06T08:04:35.902Z,82.76
2019-03-06T08:05:35.873Z,82.45
2019-03-06T08:06:35.843Z,82.45
2019-03-06T08:07:35.823Z,82.65
2019-03-06T08:08:35.961Z,82.04
2019-03-06T08:09:36.468Z,81.83
2019-03-06T08:10:35.797Z,82.65
2019-03-06T08:11:35.783Z,82.34
2019-03-06T08:12:35.764Z,82.20
2019-03-06T08:13:35.769Z,82.55
2019-03-06T08:14:35.796Z,82.65
2019-03-06T08:15:35.753Z,82.34
2019-03-06T08:16:35.783Z,81.28
2019-03-06T08:17:35.775Z,81.73
2019-03-06T08:18:35.700Z,81.73
2019-03-06T08:19:35.734Z,81.28
2019-03-06T08:20:35.743Z,80.77
2019-03-06T08:21:35.883Z,81.79
2019-03-06T08:22:35.691Z,81.18
2019-03-06T08:23:35.639Z,80.15
2019-03-06T08:24:35.629Z,80.35
2019-03-06T08:25:37.450Z,80.77
2019-03-06T08:26:35.675Z,80.35
2019-03-06T08:27:35.606Z,81.07
2019-03-06T08:28:35.605Z,80.11
2019-03-06T08:29:35.648Z,80.21
2019-03-06T08:30:35.772Z,80.05
2019-03-06T08:31:36.453Z,79.70
2019-03-06T08:32:35.577Z,79.74
2019-03-06T08:33:35.555Z,79.91
2019-03-06T08:34:35.635Z,79.91
2019-03-06T08:35:39.531Z,79.39
2019-03-06T08:36:36.392Z,79.02
2019-03-06T08:37:35.498Z,79.02
2019-03-06T08:38:35.789Z,79.12
2019-03-06T08:39:35.467Z,79.08
2019-03-06T08:40:36.583Z,78.98
2019-03-06T08:41:35.470Z,78.57
2019-03-06T08:42:35.472Z,78.47
2019-03-06T08:43:35.521Z,78.57
2019-03-06T08:44:35.572Z,78.57
2019-03-06T08:45:36.955Z,77.81
2019-03-06T08:46:35.710Z,78.23
2019-03-06T08:47:35.398Z,78.23
2019-03-06T08:48:35.389Z,77.40
2019-03-06T08:49:36.380Z,77.61
2019-03-06T08:50:35.962Z,77.20
2019-03-06T08:51:35.684Z,77.20
2019-03-06T08:52:35.497Z,77.20
2019-03-06T08:53:39.034Z,77.47
2019-03-06T08:54:35.309Z,77.26
2019-03-06T08:55:37.933Z,76.28
2019-03-06T08:56:35.358Z,76.65
2019-03-06T08:57:35.735Z,76.75
2019-03-06T08:58:35.328Z,76.28
2019-03-06T08:59:35.283Z,76.86
2019-03-06T09:00:36.968Z,76.14
2019-03-06T09:01:35.279Z,76.86
2019-03-06T09:02:36.080Z,76.24
2019-03-06T09:03:35.298Z,76.75
2019-03-06T09:04:35.401Z,76.34
2019-03-06T09:05:35.217Z,76.24
2019-03-06T09:06:37.572Z,76.55
2019-03-06T09:07:36.932Z,76.20
2019-03-06T09:08:35.207Z,76.31
2019-03-06T09:09:39.229Z,76.10
2019-03-06T09:10:36.165Z,75.28
2019-03-06T09:11:39.573Z,75.49
2019-03-06T09:12:35.203Z,74.77
2019-03-06T09:13:35.200Z,75.38
2019-03-06T09:14:35.620Z,74.43
2019-03-06T09:15:35.162Z,74.32
2019-03-06T09:16:35.301Z,74.22
2019-03-06T09:17:35.180Z,73.91
2019-03-06T09:18:35.190Z,74.32
2019-03-06T09:19:35.081Z,73.57
2019-03-06T09:20:38.403Z,73.68
2019-03-06T09:21:36.074Z,73.98
2019-03-06T09:22:35.011Z,72.14
2019-03-06T09:23:35.053Z,72.65
2019-03-06T09:24:34.992Z,72.92
2019-03-06T09:25:34.952Z,72.11
2019-03-06T09:26:35.005Z,70.98
2019-03-06T09:27:34.935Z,69.65
2019-03-06T09:28:35.085Z,68.93
2019-03-06T09:29:35.039Z,69.54
2019-03-06T09:30:35.108Z,69.31
2019-03-06T09:32:44.290Z,68.69
2019-03-06T09:33:44.235Z,67.84
2019-03-06T09:34:44.246Z,68.42
2019-03-06T09:35:44.217Z,66.78
2019-03-06T09:36:44.295Z,66.48
2019-03-06T09:37:44.191Z,65.97
2019-03-06T09:38:44.277Z,64.95
2019-03-06T09:39:44.252Z,64.30
2019-03-06T09:40:44.329Z,64.74
2019-03-06T09:41:44.147Z,64.33
2019-03-06T09:42:44.184Z,63.79
2019-03-06T09:43:44.349Z,63.69
2019-03-06T09:44:44.115Z,64.13
2019-03-06T09:45:44.193Z,63.69
2019-03-06T09:46:44.104Z,63.51
2019-03-06T09:47:44.147Z,62.29
2019-03-06T09:48:44.081Z,62.66
2019-03-06T09:49:44.096Z,62.36
2019-03-06T09:50:44.019Z,61.92
2019-03-06T09:51:44.072Z,61.00
2019-03-06T09:52:44.013Z,60.05
2019-03-06T09:53:44.021Z,59.52
2019-03-06T09:54:44.000Z,59.64
2019-03-06T09:55:44.031Z,59.44
2019-03-06T09:56:43.948Z,59.55
2019-03-06T09:57:44.002Z,59.64
2019-03-06T09:58:44.025Z,59.85
2019-03-06T09:59:43.928Z,59.41
2019-03-06T10:00:43.900Z,58.52
2019-03-06T10:01:43.901Z,58.52
2019-03-06T10:02:43.886Z,58.50
2019-03-06T10:03:43.907Z,58.26
2019-03-06T10:04:43.895Z,57.65
2019-03-06T10:05:43.850Z,57.62
2019-03-06T10:06:43.836Z,56.78
2019-03-06T10:07:43.824Z,56.35
2019-03-06T10:08:43.891Z,55.84
2019-03-06T10:09:43.814Z,55.13
2019-03-06T10:10:47.774Z,55.41
2019-03-06T10:11:44.773Z,55.48
2019-03-06T10:12:47.501Z,54.28
2019-03-06T10:13:43.783Z,54.79
2019-03-06T10:14:43.798Z,55.94
2019-03-06T10:15:43.749Z,55.10
2019-03-06T10:16:48.862Z,55.94
2019-03-06T10:17:44.725Z,56.04
2019-03-06T10:18:43.726Z,55.26
2019-03-06T10:19:43.783Z,56.17
2019-03-06T10:20:43.682Z,55.56
2019-03-06T10:21:43.677Z,56.71
2019-03-06T10:22:43.655Z,57.42
2019-03-06T10:23:43.656Z,56.60
2019-03-06T10:24:43.686Z,56.32
2019-03-06T10:25:43.633Z,56.94
2019-03-06T10:26:43.623Z,56.84
2019-03-06T10:27:43.601Z,56.73
2019-03-06T10:28:43.650Z,56.40
2019-03-06T10:29:43.633Z,55.79
2019-03-06T10:30:43.599Z,55.91
2019-03-06T10:31:43.562Z,56.23
2019-03-06T10:32:43.555Z,56.02
2019-03-06T10:33:43.644Z,56.43
2019-03-06T10:34:43.535Z,56.66
2019-03-06T10:35:43.569Z,57.14
2019-03-06T10:36:43.565Z,57.04
2019-03-06T10:37:43.496Z,57.04
2019-03-06T10:38:43.495Z,57.45
2019-03-06T10:39:43.483Z,55.91
2019-03-06T10:40:43.496Z,57.14
2019-03-06T10:41:43.445Z,56.10
2019-03-06T10:42:43.442Z,55.79
2019-03-06T10:44:44.486Z,55.87
2019-03-06T10:45:44.009Z,55.05
2019-03-06T10:46:43.436Z,55.56
2019-03-06T10:47:43.385Z,55.35
2019-03-06T10:48:43.414Z,55.13
2019-03-06T10:49:43.409Z,54.51
2019-03-06T10:50:43.980Z,54.44
2019-03-06T10:51:43.360Z,54.92
2019-03-06T10:52:43.323Z,53.98
2019-03-06T10:53:43.372Z,53.67
2019-03-06T10:54:44.767Z,53.67
2019-03-06T10:55:46.975Z,53.67
2019-03-06T10:56:43.292Z,53.78
2019-03-06T10:57:43.276Z,53.44
2019-03-06T10:58:43.271Z,52.94
2019-03-06T10:59:43.257Z,52.37
2019-03-06T11:00:43.301Z,51.34
2019-03-06T11:01:43.255Z,52.05
2019-03-06T11:02:43.236Z,51.51
2019-03-06T11:03:43.229Z,51.44
2019-03-06T11:04:43.193Z,50.81
2019-03-06T11:05:43.275Z,51.31
2019-03-06T11:06:43.177Z,51.44
2019-03-06T11:07:43.212Z,51.62
2019-03-06T11:08:43.166Z,51.11
2019-03-06T11:09:43.205Z,51.42
2019-03-06T11:10:50.846Z,51.51
2019-03-06T11:11:43.164Z,51.51
2019-03-06T11:12:43.113Z,51.49
2019-03-06T11:13:43.121Z,51.18
2019-03-06T11:14:44.588Z,50.58
2019-03-06T11:15:43.121Z,50.04
2019-03-06T11:16:43.147Z,50.25
2019-03-06T11:17:43.057Z,48.91
2019-03-06T11:18:43.062Z,48.63
2019-03-06T11:19:43.041Z,46.75
2019-03-06T11:20:43.032Z,45.23
2019-03-06T11:21:43.079Z,44.58
2019-03-06T11:22:43.009Z,44.80
2019-03-06T11:23:42.992Z,43.97
2019-03-06T11:24:42.976Z,43.00
2019-03-06T11:25:42.963Z,41.45
2019-03-06T11:26:43.023Z,42.27
2019-03-06T11:27:42.944Z,43.26
2019-03-06T11:28:42.980Z,46.41
2019-03-06T11:29:42.931Z,48.68
2019-03-06T11:30:42.914Z,48.60
2019-03-06T11:31:43.128Z,48.11
2019-03-06T11:32:42.933Z,49.03
2019-03-06T11:33:42.889Z,49.46
2019-03-06T11:34:42.902Z,49.79
2019-03-06T11:35:42.851Z,50.17
2019-03-06T11:36:42.926Z,50.09
2019-03-06T11:37:42.888Z,50.50
2019-03-06T11:38:44.317Z,50.04
2019-03-06T11:39:42.818Z,48.75
2019-03-06T11:40:42.916Z,50.90
2019-03-06T11:41:42.794Z,50.50
2019-03-06T11:42:42.773Z,50.40
2019-03-06T11:43:43.522Z,51.03
2019-03-06T11:44:42.765Z,51.11
2019-03-06T11:45:42.784Z,50.50
2019-03-06T11:46:42.761Z,50.73
2019-03-06T11:47:42.746Z,50.60
2019-03-06T11:48:45.868Z,50.42
2019-03-06T11:49:42.743Z,50.42
2019-03-06T11:50:42.749Z,50.73
2019-03-06T11:51:42.716Z,50.52
2019-03-06T11:52:42.721Z,50.62
2019-03-06T11:53:42.697Z,51.03
2019-03-06T11:54:42.664Z,50.83
2019-03-06T11:55:42.633Z,51.26
2019-03-06T11:56:42.665Z,50.45
2019-03-06T11:57:42.685Z,50.14
2019-03-06T11:58:44.479Z,50.65
2019-03-06T11:59:42.599Z,50.83
2019-03-06T12:00:42.586Z,50.93
2019-03-06T12:01:47.915Z,50.83
2019-03-06T12:02:43.588Z,50.62
2019-03-06T12:03:42.697Z,50.12
2019-03-06T12:04:42.540Z,50.62
2019-03-06T12:05:42.532Z,50.70
2019-03-06T12:06:42.546Z,49.89
2019-03-06T12:07:42.504Z,49.46
2019-03-06T12:08:45.758Z,49.87
2019-03-06T12:09:42.541Z,49.76
2019-03-06T12:10:42.477Z,49.56
2019-03-06T12:11:42.469Z,49.36
2019-03-06T12:12:42.464Z,49.87
2019-03-06T12:13:42.480Z,49.58
2019-03-06T12:14:42.459Z,51.01
2019-03-06T12:15:42.413Z,49.81
2019-03-06T12:16:42.464Z,50.62
2019-03-06T12:17:42.440Z,50.62
2019-03-06T12:18:42.609Z,50.09
2019-03-06T12:19:42.372Z,49.89
2019-03-06T12:20:42.369Z,49.79
2019-03-06T12:21:42.349Z,50.40
2019-03-06T12:22:42.387Z,49.79
2019-03-06T12:23:42.327Z,49.79
2019-03-06T12:24:42.994Z,49.97
2019-03-06T12:25:42.357Z,50.17
2019-03-06T12:26:42.334Z,50.45
2019-03-06T12:27:42.289Z,49.95
2019-03-06T12:28:42.278Z,49.72
2019-03-06T12:29:43.995Z,48.72
2019-03-06T12:30:42.254Z,49.11
2019-03-06T12:31:42.252Z,48.91
2019-03-06T12:32:42.235Z,48.83
2019-03-06T12:33:42.262Z,49.52
2019-03-06T12:34:42.263Z,49.11
2019-03-06T12:35:42.189Z,49.23
2019-03-06T12:36:42.181Z,49.33
2019-03-06T12:37:46.939Z,49.41
2019-03-06T12:38:43.155Z,48.71
2019-03-06T12:39:42.259Z,49.19
2019-03-06T12:40:42.170Z,48.68
2019-03-06T12:41:42.180Z,48.18
2019-03-06T12:42:42.117Z,47.69
2019-03-06T12:43:42.139Z,47.26
2019-03-06T12:44:42.171Z,48.15
2019-03-06T12:45:42.138Z,48.05
2019-03-06T12:46:42.084Z,48.38
2019-03-06T12:47:42.064Z,47.34
2019-03-06T12:48:42.144Z,47.87
2019-03-06T12:49:42.994Z,48.68
2019-03-06T12:50:42.055Z,48.07
2019-03-06T12:51:42.040Z,48.50
2019-03-06T12:52:42.017Z,48.40
2019-03-06T12:53:41.999Z,47.69
2019-03-06T12:54:41.996Z,47.67
2019-03-06T12:55:43.994Z,47.56
2019-03-06T12:56:41.989Z,47.79
2019-03-06T12:57:41.958Z,47.59
2019-03-06T12:58:41.956Z,49.01
2019-03-06T12:59:41.936Z,48.71
2019-03-06T13:00:42.519Z,48.93
2019-03-06T13:01:41.916Z,48.93
2019-03-06T13:02:41.938Z,49.44
2019-03-06T13:03:41.886Z,49.44
2019-03-06T13:04:41.884Z,49.74
2019-03-06T13:05:41.925Z,50.48
2019-03-06T13:06:41.859Z,50.86
2019-03-06T13:07:41.841Z,50.98
2019-03-06T13:08:49.917Z,51.29
2019-03-06T13:09:42.830Z,51.39
2019-03-06T13:10:41.809Z,51.49
2019-03-06T13:11:41.932Z,51.29
2019-03-06T13:12:41.984Z,51.59
2019-03-06T13:13:41.836Z,52.03
2019-03-06T13:14:41.783Z,52.53
2019-03-06T13:15:42.082Z,53.78
2019-03-06T13:16:46.574Z,52.84
2019-03-06T13:17:41.964Z,53.57
2019-03-06T13:18:41.783Z,53.06
2019-03-06T13:19:42.027Z,53.29
2019-03-06T13:20:41.759Z,54.00
2019-03-06T13:22:11.400Z,54.64
2019-03-06T13:22:42.704Z,55.46
2019-03-06T13:23:41.725Z,54.85
2019-03-06T13:24:41.914Z,55.35
2019-03-06T13:25:41.702Z,57.72
2019-03-06T13:26:42.531Z,57.42
2019-03-06T13:27:41.866Z,58.05
2019-03-06T13:28:41.735Z,57.95
2019-03-06T13:29:41.838Z,59.28
2019-03-06T13:30:41.699Z,61.00
2019-03-06T13:31:42.582Z,59.30
2019-03-06T13:32:41.961Z,61.95
2019-03-06T13:33:41.589Z,59.07
2019-03-06T13:34:50.701Z,59.91
2019-03-06T13:35:42.583Z,60.22
2019-03-06T13:36:41.980Z,59.61
2019-03-06T13:38:54.964Z,61.54
2019-03-06T13:39:50.382Z,61.11
2019-03-06T13:40:50.343Z,61.41
2019-03-06T13:41:51.010Z,60.09
2019-03-06T13:42:52.066Z,60.50
2019-03-06T13:43:50.414Z,60.09
2019-03-06T13:44:50.284Z,55.51
2019-03-06T13:45:50.420Z,54.87
2019-03-06T13:46:50.384Z,55.18
2019-03-06T13:47:55.552Z,53.65
2019-03-06T13:48:50.570Z,53.44
2019-03-06T13:49:50.245Z,53.75
2019-03-06T13:50:50.216Z,54.64
2019-03-06T13:51:50.204Z,53.32
2019-03-06T13:52:50.198Z,53.42
2019-03-06T13:53:50.243Z,53.63
2019-03-06T13:54:50.220Z,51.39
2019-03-06T13:55:50.170Z,52.61
2019-03-06T13:56:51.811Z,51.89
2019-03-06T13:57:51.320Z,52.30
2019-03-06T13:58:52.016Z,53.11
2019-03-06T13:59:50.111Z,52.61
2019-03-06T14:00:50.125Z,53.42
2019-03-06T14:01:50.106Z,53.32
2019-03-06T14:02:50.144Z,52.81
2019-03-06T14:03:50.135Z,52.81
2019-03-06T14:04:50.127Z,52.30
2019-03-06T14:05:50.228Z,53.34
2019-03-06T14:06:50.120Z,52.91
2019-03-06T14:07:56.475Z,53.42
2019-03-06T14:08:52.194Z,54.66
2019-03-06T14:09:51.029Z,53.85
2019-03-06T14:10:50.151Z,54.26
2019-03-06T14:11:50.023Z,53.65
2019-03-06T14:12:50.055Z,54.46
2019-03-06T14:13:51.189Z,54.26
2019-03-06T14:14:51.540Z,54.16
2019-03-06T14:15:53.983Z,54.05
2019-03-06T14:16:50.280Z,55.07
2019-03-06T14:17:49.992Z,55.61
2019-03-06T14:18:49.986Z,55.71
2019-03-06T14:19:50.058Z,54.87
2019-03-06T14:20:50.102Z,56.52
2019-03-06T14:21:50.707Z,55.00
2019-03-06T14:22:50.245Z,55.28
2019-03-06T14:23:49.868Z,55.07
2019-03-06T14:24:49.844Z,55.81
2019-03-06T14:25:49.928Z,55.91
2019-03-06T14:26:49.831Z,55.61
2019-03-06T14:27:50.047Z,56.12
2019-03-06T14:28:49.889Z,55.91
2019-03-06T14:29:51.170Z,55.81
2019-03-06T14:30:50.073Z,56.22
2019-03-06T14:31:49.864Z,56.63
2019-03-06T14:32:49.877Z,56.02
2019-03-06T14:33:49.865Z,56.22
2019-03-06T14:34:49.789Z,55.81
2019-03-06T14:35:50.076Z,56.52
2019-03-06T14:36:49.727Z,56.02
2019-03-06T14:37:49.847Z,55.81
2019-03-06T14:38:49.863Z,56.02
2019-03-06T14:39:50.140Z,56.02
2019-03-06T14:40:49.771Z,55.51
2019-03-06T14:41:52.767Z,55.81
2019-03-06T14:42:49.883Z,55.81
2019-03-06T14:43:49.632Z,55.91
2019-03-06T14:44:49.825Z,56.02
2019-03-06T14:45:49.649Z,55.81
2019-03-06T14:46:49.657Z,55.91
2019-03-06T14:47:49.680Z,56.32